Station Historical Data
Daily Summary for July 4, 2012 Units:  English    Metric   Both
« Previous Day
Next Day »
Daily Weekly Monthly Yearly Custom
  High: Low: Average:
Temperature: 98.8 °F 71.7 °F 83.9 °F
Dew Point: 72.5 °F 64.0 °F 68.6 °F
Humidity: 90% 33% 63%
Wind Speed: 12.0mph 0.0mph 2.9mph
Wind Gust: 17.0mph - -
Wind- - SW
Pressure: 29.99 in 29.85 in -
Precipitation: 0.00 in    
Historical Graphs
 
 
Tabular Data for July 4, 2012
Time Temperature Dew Point Pressure Wind Wind Speed Wind Gust Humidity Rainfall Rate (Hourly) Conditions
00:00 79.0 °F 68.4 °F 29.91 in Calm   1.0 mph 70% 0.00 in
00:02 79.0 °F 68.4 °F 29.91 in Calm     70% 0.00 in
00:07 79.0 °F 68.4 °F 29.91 in Calm     70% 0.00 in
00:12 78.8 °F 69.0 °F 29.91 in Calm     72% 0.00 in
00:17 78.3 °F 68.9 °F 29.91 in North 1.0 mph 1.0 mph 73% 0.00 in
00:22 77.7 °F 68.8 °F 29.92 in East 1.0 mph 1.0 mph 74% 0.00 in
00:27 77.8 °F 68.5 °F 29.92 in ESE 1.0 mph 1.0 mph 73% 0.00 in
00:33 78.3 °F 68.5 °F 29.92 in Calm     72% 0.00 in
00:38 78.2 °F 68.8 °F 29.92 in Calm     73% 0.00 in
00:43 77.8 °F 68.9 °F 29.92 in Calm     74% 0.00 in
00:48 77.4 °F 68.9 °F 29.92 in Calm     75% 0.00 in
00:53 77.0 °F 69.2 °F 29.91 in Calm     77% 0.00 in
00:57 76.7 °F 69.3 °F 29.91 in Calm     78% 0.00 in
01:02 76.6 °F 69.6 °F 29.91 in Calm   1.0 mph 79% 0.00 in
01:08 76.1 °F 69.8 °F 29.91 in Calm     81% 0.00 in
01:13 75.8 °F 69.6 °F 29.92 in Calm     81% 0.00 in
01:18 75.9 °F 69.7 °F 29.92 in Calm     81% 0.00 in
01:23 76.1 °F 69.8 °F 29.92 in Calm     81% 0.00 in
01:28 76.2 °F 70.3 °F 29.91 in Calm     82% 0.00 in
01:33 76.3 °F 69.7 °F 29.91 in ESE 1.0 mph 1.0 mph 80% 0.00 in
01:38 76.6 °F 69.2 °F 29.91 in ESE 2.0 mph 2.0 mph 78% 0.00 in
01:43 76.7 °F 68.9 °F 29.91 in ESE 2.0 mph 2.0 mph 77% 0.00 in
01:48 77.1 °F 68.6 °F 29.91 in East 1.0 mph 2.0 mph 75% 0.00 in
01:53 77.2 °F 69.1 °F 29.91 in East 1.0 mph 1.0 mph 76% 0.00 in
01:58 76.4 °F 69.0 °F 29.91 in Calm     78% 0.00 in
02:03 75.9 °F 68.9 °F 29.91 in Calm     79% 0.00 in
02:08 75.6 °F 68.6 °F 29.91 in Calm     79% 0.00 in
02:13 75.2 °F 68.6 °F 29.91 in Calm     80% 0.00 in
02:18 75.1 °F 69.2 °F 29.91 in NE 1.0 mph 1.0 mph 82% 0.00 in
02:23 74.8 °F 69.3 °F 29.91 in Calm   1.0 mph 83% 0.00 in
02:28 74.6 °F 69.1 °F 29.90 in Calm   1.0 mph 83% 0.00 in
02:33 74.5 °F 69.0 °F 29.91 in NE 1.0 mph 1.0 mph 83% 0.00 in
02:38 74.3 °F 69.2 °F 29.90 in Calm   1.0 mph 84% 0.00 in
02:43 74.0 °F 69.2 °F 29.90 in Calm     85% 0.00 in
02:48 73.8 °F 69.0 °F 29.90 in Calm   1.0 mph 85% 0.00 in
02:53 73.8 °F 68.7 °F 29.90 in Calm     84% 0.00 in
02:58 73.7 °F 68.6 °F 29.90 in Calm     84% 0.00 in
03:03 73.7 °F 68.9 °F 29.90 in NE 1.0 mph 1.0 mph 85% 0.00 in
03:08 73.5 °F 69.1 °F 29.90 in NE 1.0 mph 1.0 mph 86% 0.00 in
03:13 73.3 °F 69.2 °F 29.90 in Calm   1.0 mph 87% 0.00 in
03:18 73.3 °F 68.9 °F 29.90 in Calm     86% 0.00 in
03:23 73.2 °F 69.1 °F 29.90 in Calm     87% 0.00 in
03:28 73.1 °F 68.7 °F 29.90 in Calm     86% 0.00 in
03:33 72.9 °F 68.8 °F 29.90 in Calm     87% 0.00 in
03:38 72.7 °F 68.6 °F 29.90 in Calm   1.0 mph 87% 0.00 in
03:43 72.8 °F 68.7 °F 29.90 in Calm     87% 0.00 in
03:48 73.2 °F 68.8 °F 29.91 in NE 1.0 mph 1.0 mph 86% 0.00 in
03:53 73.3 °F 68.9 °F 29.91 in Calm   1.0 mph 86% 0.00 in
03:58 73.4 °F 69.0 °F 29.91 in Calm     86% 0.00 in
04:03 73.3 °F 68.9 °F 29.91 in Calm     86% 0.00 in
04:08 73.0 °F 68.6 °F 29.91 in Calm     86% 0.00 in
04:13 72.7 °F 68.6 °F 29.91 in Calm     87% 0.00 in
04:18 72.5 °F 68.8 °F 29.91 in Calm     88% 0.00 in
04:23 72.2 °F 68.8 °F 29.91 in Calm     89% 0.00 in
04:28 72.0 °F 68.6 °F 29.91 in Calm     89% 0.00 in
04:33 71.9 °F 68.8 °F 29.91 in Calm     90% 0.00 in
04:38 72.0 °F 68.9 °F 29.91 in Calm     90% 0.00 in
04:43 72.0 °F 68.9 °F 29.91 in Calm     90% 0.00 in
04:48 72.2 °F 68.8 °F 29.91 in Calm     89% 0.00 in
04:53 72.1 °F 68.3 °F 29.91 in Calm     88% 0.00 in
04:58 72.0 °F 68.6 °F 29.91 in Calm     89% 0.00 in
05:04 71.9 °F 68.8 °F 29.91 in Calm     90% 0.00 in
05:09 71.7 °F 68.3 °F 29.92 in Calm     89% 0.00 in
05:14 71.9 °F 68.5 °F 29.92 in Calm     89% 0.00 in
05:19 72.3 °F 68.6 °F 29.92 in East 7.0 mph 7.0 mph 88% 0.00 in
05:24 72.1 °F 68.3 °F 29.92 in SE 3.0 mph 6.0 mph 88% 0.00 in
05:29 72.2 °F 68.4 °F 29.92 in ESE 2.0 mph 2.0 mph 88% 0.00 in
05:34 72.2 °F 68.4 °F 29.92 in ESE 2.0 mph 3.0 mph 88% 0.00 in
05:39 72.0 °F 68.3 °F 29.93 in Calm   2.0 mph 88% 0.00 in
05:44 72.0 °F 68.3 °F 29.93 in Calm   1.0 mph 88% 0.00 in
05:49 72.0 °F 68.3 °F 29.93 in SE 1.0 mph 1.0 mph 88% 0.00 in
05:54 71.9 °F 68.2 °F 29.93 in Calm     88% 0.00 in
05:59 72.0 °F 68.3 °F 29.93 in Calm   1.0 mph 88% 0.00 in
06:04 72.2 °F 68.1 °F 29.93 in Calm   1.0 mph 87% 0.00 in
06:09 72.4 °F 68.3 °F 29.93 in ESE 1.0 mph 1.0 mph 87% 0.00 in
06:14 72.7 °F 68.3 °F 29.93 in SE 1.0 mph 2.0 mph 86% 0.00 in
06:19 72.7 °F 68.3 °F 29.94 in Calm   1.0 mph 86% 0.00 in
06:24 72.3 °F 67.9 °F 29.94 in Calm     86% 0.00 in
06:29 72.0 °F 67.9 °F 29.94 in Calm     87% 0.00 in
06:34 71.9 °F 67.8 °F 29.94 in Calm     87% 0.00 in
06:39 71.7 °F 68.0 °F 29.94 in Calm     88% 0.00 in
06:44 71.9 °F 68.2 °F 29.94 in ESE 1.0 mph 1.0 mph 88% 0.00 in
06:49 71.9 °F 67.8 °F 29.94 in Calm   1.0 mph 87% 0.00 in
06:54 72.0 °F 67.9 °F 29.94 in Calm   2.0 mph 87% 0.00 in
06:59 71.8 °F 67.7 °F 29.94 in ENE 1.0 mph 1.0 mph 87% 0.00 in
07:04 71.8 °F 68.1 °F 29.95 in Calm   1.0 mph 88% 0.00 in
07:09 71.8 °F 68.1 °F 29.95 in Calm     88% 0.00 in
07:14 71.8 °F 68.1 °F 29.95 in Calm     88% 0.00 in
07:19 71.7 °F 68.0 °F 29.95 in Calm     88% 0.00 in
07:24 71.8 °F 68.4 °F 29.95 in Calm     89% 0.00 in
07:29 72.1 °F 68.3 °F 29.95 in Calm     88% 0.00 in
07:34 72.6 °F 68.8 °F 29.95 in Calm     88% 0.00 in
07:39 73.3 °F 69.5 °F 29.96 in Calm     88% 0.00 in
07:44 73.8 °F 69.3 °F 29.96 in Calm     86% 0.00 in
07:49 74.7 °F 69.9 °F 29.96 in Calm     85% 0.00 in
07:54 75.8 °F 71.0 °F 29.96 in Calm     85% 0.00 in
07:59 76.3 °F 71.1 °F 29.96 in Calm     84% 0.00 in
08:04 76.3 °F 71.5 °F 29.96 in Calm     85% 0.00 in
08:09 76.4 °F 71.6 °F 29.97 in Calm     85% 0.00 in
08:14 77.0 °F 71.8 °F 29.97 in Calm     84% 0.00 in
08:19 78.0 °F 71.7 °F 29.97 in Calm     81% 0.00 in
08:24 79.2 °F 72.1 °F 29.97 in Calm     79% 0.00 in
08:29 80.2 °F 72.3 °F 29.97 in Calm     77% 0.00 in
08:34 80.8 °F 72.5 °F 29.97 in Calm     76% 0.00 in
08:39 81.4 °F 71.5 °F 29.98 in SSW 1.0 mph 2.0 mph 72% 0.00 in
08:44 81.3 °F 72.2 °F 29.98 in SSW 1.0 mph 3.0 mph 74% 0.00 in
08:49 81.2 °F 70.9 °F 29.98 in SW 2.0 mph 4.0 mph 71% 0.00 in
08:54 81.3 °F 71.8 °F 29.98 in SW 2.0 mph 4.0 mph 73% 0.00 in
09:00 81.4 °F 71.1 °F 29.98 in SW 4.0 mph 5.0 mph 71% 0.00 in
09:05 81.4 °F 70.7 °F 29.98 in SW 4.0 mph 5.0 mph 70% 0.00 in
09:10 81.5 °F 71.2 °F 29.98 in SW 3.0 mph 5.0 mph 71% 0.00 in
09:15 82.0 °F 72.1 °F 29.98 in Calm   4.0 mph 72% 0.00 in
09:20 82.5 °F 71.3 °F 29.98 in WSW 1.0 mph 3.0 mph 69% 0.00 in
09:25 82.7 °F 71.5 °F 29.98 in WSW 2.0 mph 3.0 mph 69% 0.00 in
09:30 83.1 °F 71.4 °F 29.98 in Calm   4.0 mph 68% 0.00 in
09:35 83.9 °F 70.4 °F 29.98 in SW 5.0 mph 5.0 mph 64% 0.00 in
09:40 83.9 °F 70.4 °F 29.99 in West 5.0 mph 8.0 mph 64% 0.00 in
09:45 84.2 °F 70.2 °F 29.99 in West 4.0 mph 6.0 mph 63% 0.00 in
09:50 84.5 °F 71.0 °F 29.99 in SW 2.0 mph 6.0 mph 64% 0.00 in
09:55 85.0 °F 71.0 °F 29.98 in WSW 4.0 mph 7.0 mph 63% 0.00 in
10:00 85.4 °F 70.4 °F 29.99 in SSW 3.0 mph 8.0 mph 61% 0.00 in
10:05 85.8 °F 70.8 °F 29.99 in WSW 4.0 mph 7.0 mph 61% 0.00 in
10:10 86.1 °F 70.1 °F 29.98 in SW 3.0 mph 6.0 mph 59% 0.00 in
10:15 86.6 °F 70.1 °F 29.99 in West 7.0 mph 8.0 mph 58% 0.00 in
10:20 86.9 °F 70.4 °F 29.99 in West 3.0 mph 7.0 mph 58% 0.00 in
10:25 87.3 °F 70.7 °F 29.98 in West 1.0 mph 8.0 mph 58% 0.00 in
10:30 87.8 °F 70.2 °F 29.99 in WNW 3.0 mph 9.0 mph 56% 0.00 in
10:35 88.0 °F 69.8 °F 29.98 in West 4.0 mph 8.0 mph 55% 0.00 in
10:40 88.0 °F 70.3 °F 29.98 in West 4.0 mph 8.0 mph 56% 0.00 in
10:45 88.2 °F 70.0 °F 29.98 in West 4.0 mph 6.0 mph 55% 0.00 in
10:50 88.3 °F 69.6 °F 29.98 in WNW 6.0 mph 11.0 mph 54% 0.00 in
10:55 88.3 °F 69.6 °F 29.99 in SW 3.0 mph 7.0 mph 54% 0.00 in
11:00 88.7 °F 69.9 °F 29.99 in WNW 2.0 mph 7.0 mph 54% 0.00 in
11:05 88.8 °F 70.0 °F 29.99 in West 5.0 mph 9.0 mph 54% 0.00 in
11:10 88.8 °F 69.5 °F 29.98 in West 5.0 mph 9.0 mph 53% 0.00 in
11:15 88.9 °F 69.6 °F 29.98 in WNW 6.0 mph 7.0 mph 53% 0.00 in
11:20 89.2 °F 69.3 °F 29.98 in WNW 8.0 mph 9.0 mph 52% 0.00 in
11:25 89.2 °F 68.7 °F 29.98 in West 5.0 mph 7.0 mph 51% 0.00 in
11:30 89.5 °F 70.1 °F 29.98 in SSW 4.0 mph 6.0 mph 53% 0.00 in
11:35 90.1 °F 70.1 °F 29.98 in West 3.0 mph 6.0 mph 52% 0.00 in
11:40 89.8 °F 69.8 °F 29.97 in WNW 4.0 mph 8.0 mph 52% 0.00 in
11:45 90.4 °F 69.8 °F 29.98 in NW 6.0 mph 8.0 mph 51% 0.00 in
11:50 89.9 °F 69.9 °F 29.98 in Calm   4.0 mph 52% 0.00 in
11:55 90.2 °F 69.1 °F 29.98 in WNW 6.0 mph 7.0 mph 50% 0.00 in
12:00 90.2 °F 68.5 °F 29.97 in West 2.0 mph 9.0 mph 49% 0.00 in
12:05 91.2 °F 69.4 °F 29.97 in SW 6.0 mph 6.0 mph 49% 0.00 in
12:10 92.3 °F 69.2 °F 29.97 in SW 6.0 mph 6.0 mph 47% 0.00 in
12:15 92.0 °F 67.6 °F 29.97 in WNW 5.0 mph 7.0 mph 45% 0.00 in
12:20 91.9 °F 67.5 °F 29.97 in WNW 5.0 mph 9.0 mph 45% 0.00 in
12:25 92.2 °F 67.2 °F 29.97 in SE 2.0 mph 4.0 mph 44% 0.00 in
12:30 92.7 °F 68.3 °F 29.97 in West 6.0 mph 10.0 mph 45% 0.00 in
12:35 92.2 °F 67.8 °F 29.97 in SW 1.0 mph 10.0 mph 45% 0.00 in
12:40 93.0 °F 67.9 °F 29.97 in West 3.0 mph 6.0 mph 44% 0.00 in
12:46 93.2 °F 68.1 °F 29.97 in WNW 5.0 mph 10.0 mph 44% 0.00 in
12:51 92.6 °F 67.5 °F 29.96 in NW 2.0 mph 6.0 mph 44% 0.00 in
12:56 93.2 °F 68.1 °F 29.97 in SW 9.0 mph 13.0 mph 44% 0.00 in
13:01 93.1 °F 67.3 °F 29.96 in WSW 8.0 mph 8.0 mph 43% 0.00 in
13:06 93.4 °F 66.9 °F 29.96 in SW 12.0 mph 12.0 mph 42% 0.00 in
13:11 93.4 °F 66.9 °F 29.96 in WSW 5.0 mph 6.0 mph 42% 0.00 in
13:16 93.7 °F 67.2 °F 29.95 in WSW 7.0 mph 14.0 mph 42% 0.00 in
13:21 94.4 °F 67.1 °F 29.95 in WNW 7.0 mph 11.0 mph 41% 0.00 in
13:26 94.0 °F 68.1 °F 29.95 in WNW 5.0 mph 8.0 mph 43% 0.00 in
13:31 94.4 °F 67.1 °F 29.95 in WSW 6.0 mph 6.0 mph 41% 0.00 in
13:36 94.6 °F 67.3 °F 29.95 in NW 3.0 mph 10.0 mph 41% 0.00 in
13:41 95.0 °F 66.9 °F 29.95 in SSW 6.0 mph 9.0 mph 40% 0.00 in
13:46 95.3 °F 67.9 °F 29.94 in WNW 9.0 mph 11.0 mph 41% 0.00 in
13:51 95.1 °F 65.5 °F 29.94 in WSW 1.0 mph 9.0 mph 38% 0.00 in
13:56 95.4 °F 65.8 °F 29.94 in WNW 3.0 mph 9.0 mph 38% 0.00 in
14:01 95.6 °F 66.7 °F 29.94 in WNW 7.0 mph 10.0 mph 39% 0.00 in
14:06 94.8 °F 66.7 °F 29.94 in WNW 6.0 mph 8.0 mph 40% 0.00 in
14:11 94.5 °F 66.5 °F 29.94 in WNW 2.0 mph 10.0 mph 40% 0.00 in
14:16 94.5 °F 66.5 °F 29.94 in NNW 7.0 mph 10.0 mph 40% 0.00 in
14:21 94.7 °F 66.6 °F 29.93 in West 9.0 mph 9.0 mph 40% 0.00 in
14:26 94.9 °F 66.8 °F 29.93 in SW 6.0 mph 7.0 mph 40% 0.00 in
14:31 95.2 °F 67.1 °F 29.93 in WSW 4.0 mph 7.0 mph 40% 0.00 in
14:36 94.8 °F 66.0 °F 29.93 in WNW 3.0 mph 10.0 mph 39% 0.00 in
14:42 93.8 °F 65.8 °F 29.93 in WNW 4.0 mph 11.0 mph 40% 0.00 in
14:47 93.3 °F 66.1 °F 29.93 in West 3.0 mph 6.0 mph 41% 0.00 in
14:52 93.1 °F 66.6 °F 29.93 in NW 1.0 mph 3.0 mph 42% 0.00 in
14:57 93.1 °F 65.9 °F 29.92 in WNW 2.0 mph 5.0 mph 41% 0.00 in
15:02 93.3 °F 66.8 °F 29.92 in West 1.0 mph 3.0 mph 42% 0.00 in
15:07 93.6 °F 65.7 °F 29.91 in Calm   3.0 mph 40% 0.00 in
15:12 94.9 °F 66.1 °F 29.91 in WSW 4.0 mph 9.0 mph 39% 0.00 in
15:17 95.6 °F 65.2 °F 29.91 in SW 4.0 mph 7.0 mph 37% 0.00 in
15:22 95.5 °F 65.9 °F 29.91 in WSW 1.0 mph 6.0 mph 38% 0.00 in
15:27 95.4 °F 65.8 °F 29.91 in West 3.0 mph 7.0 mph 38% 0.00 in
15:32 95.8 °F 66.1 °F 29.90 in NNW 4.0 mph 5.0 mph 38% 0.00 in
15:37 96.3 °F 65.8 °F 29.90 in West 5.0 mph 7.0 mph 37% 0.00 in
15:42 97.1 °F 65.7 °F 29.89 in West 10.0 mph 10.0 mph 36% 0.00 in
15:47 97.2 °F 65.0 °F 29.89 in WNW 5.0 mph 6.0 mph 35% 0.00 in
15:52 97.4 °F 64.3 °F 29.89 in SW 9.0 mph 11.0 mph 34% 0.00 in
15:57 97.4 °F 66.0 °F 29.89 in WSW 5.0 mph 11.0 mph 36% 0.00 in
16:02 97.9 °F 64.8 °F 29.88 in West 3.0 mph 9.0 mph 34% 0.00 in
16:07 98.6 °F 66.2 °F 29.88 in West 5.0 mph 7.0 mph 35% 0.00 in
16:12 98.2 °F 64.2 °F 29.88 in NW 7.0 mph 10.0 mph 33% 0.00 in
16:17 98.5 °F 66.1 °F 29.88 in SSE 5.0 mph 6.0 mph 35% 0.00 in
16:22 98.8 °F 65.6 °F 29.88 in West 4.0 mph 13.0 mph 34% 0.00 in
16:27 98.0 °F 64.0 °F 29.88 in WNW 5.0 mph 8.0 mph 33% 0.00 in
16:32 97.4 °F 65.2 °F 29.88 in WNW 4.0 mph 4.0 mph 35% 0.00 in
16:37 97.4 °F 64.3 °F 29.88 in SSW 5.0 mph 8.0 mph 34% 0.00 in
16:42 97.8 °F 64.7 °F 29.88 in NW 4.0 mph 8.0 mph 34% 0.00 in
16:48 97.4 °F 65.2 °F 29.88 in NE 1.0 mph 3.0 mph 35% 0.00 in
16:53 96.8 °F 65.5 °F 29.88 in WNW 2.0 mph 5.0 mph 36% 0.00 in
16:58 96.1 °F 64.8 °F 29.88 in WSW 4.0 mph 7.0 mph 36% 0.00 in
17:03 95.5 °F 65.1 °F 29.88 in WNW 3.0 mph 6.0 mph 37% 0.00 in
17:08 93.8 °F 66.6 °F 29.88 in WNW 7.0 mph 17.0 mph 41% 0.00 in
17:13 90.7 °F 65.8 °F 29.88 in WSW 7.0 mph 14.0 mph 44% 0.00 in
17:18 89.8 °F 65.0 °F 29.88 in SW 7.0 mph 12.0 mph 44% 0.00 in
17:23 89.2 °F 64.5 °F 29.88 in WSW 9.0 mph 12.0 mph 44% 0.00 in
17:28 88.9 °F 65.5 °F 29.88 in WSW 5.0 mph 8.0 mph 46% 0.00 in
17:33 89.0 °F 64.9 °F 29.87 in SW 8.0 mph 8.0 mph 45% 0.00 in
17:38 89.7 °F 65.6 °F 29.87 in SW 9.0 mph 9.0 mph 45% 0.00 in
17:43 90.0 °F 65.8 °F 29.87 in South 7.0 mph 9.0 mph 45% 0.00 in
17:48 90.4 °F 65.5 °F 29.87 in SSW 2.0 mph 8.0 mph 44% 0.00 in
17:53 91.2 °F 65.6 °F 29.86 in SW 3.0 mph 6.0 mph 43% 0.00 in
17:58 91.3 °F 67.6 °F 29.86 in SE 7.0 mph 10.0 mph 46% 0.00 in
18:03 90.9 °F 67.9 °F 29.86 in SE 7.0 mph 9.0 mph 47% 0.00 in
18:08 91.2 °F 67.6 °F 29.85 in South 4.0 mph 8.0 mph 46% 0.00 in
18:13 92.5 °F 68.1 °F 29.86 in SSE 6.0 mph 10.0 mph 45% 0.00 in
18:18 93.5 °F 67.7 °F 29.85 in SSW 3.0 mph 8.0 mph 43% 0.00 in
18:23 93.3 °F 68.2 °F 29.85 in SW 9.0 mph 11.0 mph 44% 0.00 in
18:28 91.9 °F 68.2 °F 29.85 in SW 5.0 mph 9.0 mph 46% 0.00 in
18:33 90.9 °F 68.5 °F 29.86 in SW 8.0 mph 8.0 mph 48% 0.00 in
18:38 90.6 °F 68.8 °F 29.86 in SW 4.0 mph 11.0 mph 49% 0.00 in
18:43 90.3 °F 69.2 °F 29.85 in WSW 4.0 mph 9.0 mph 50% 0.00 in
18:48 90.0 °F 68.3 °F 29.86 in SSW 5.0 mph 9.0 mph 49% 0.00 in
18:53 90.2 °F 68.5 °F 29.86 in SSW 8.0 mph 10.0 mph 49% 0.00 in
18:58 90.4 °F 68.7 °F 29.86 in WSW 8.0 mph 10.0 mph 49% 0.00 in
19:03 90.7 °F 68.9 °F 29.86 in SW 8.0 mph 10.0 mph 49% 0.00 in
19:08 91.0 °F 68.6 °F 29.86 in WSW 5.0 mph 9.0 mph 48% 0.00 in
19:13 91.2 °F 67.6 °F 29.86 in SW 6.0 mph 8.0 mph 46% 0.00 in
19:18 91.3 °F 67.6 °F 29.87 in SW 7.0 mph 9.0 mph 46% 0.00 in
19:23 91.0 °F 67.4 °F 29.87 in SW 8.0 mph 9.0 mph 46% 0.00 in
19:28 90.9 °F 66.6 °F 29.86 in SSW 5.0 mph 10.0 mph 45% 0.00 in
19:33 90.8 °F 67.2 °F 29.87 in SW 7.0 mph 9.0 mph 46% 0.00 in
19:38 90.6 °F 67.6 °F 29.87 in SW 3.0 mph 9.0 mph 47% 0.00 in
19:43 90.6 °F 68.2 °F 29.87 in SW 7.0 mph 7.0 mph 48% 0.00 in
19:48 90.3 °F 68.0 °F 29.87 in SW 7.0 mph 8.0 mph 48% 0.00 in
19:53 90.1 °F 69.0 °F 29.87 in SW 5.0 mph 8.0 mph 50% 0.00 in
19:58 90.1 °F 69.0 °F 29.87 in SSW 6.0 mph 9.0 mph 50% 0.00 in
20:03 90.1 °F 68.4 °F 29.88 in SSW 7.0 mph 11.0 mph 49% 0.00 in
20:08 90.0 °F 68.3 °F 29.88 in SW 6.0 mph 10.0 mph 49% 0.00 in
20:13 89.9 °F 68.8 °F 29.88 in SSW 3.0 mph 5.0 mph 50% 0.00 in
20:18 89.5 °F 68.4 °F 29.87 in SW 5.0 mph 6.0 mph 50% 0.00 in
20:23 89.1 °F 68.6 °F 29.88 in SW 5.0 mph 6.0 mph 51% 0.00 in
20:28 88.6 °F 68.7 °F 29.88 in SW 4.0 mph 9.0 mph 52% 0.00 in
20:33 88.1 °F 68.8 °F 29.88 in WSW 4.0 mph 8.0 mph 53% 0.00 in
20:38 87.7 °F 69.0 °F 29.88 in SSW 5.0 mph 7.0 mph 54% 0.00 in
20:43 87.2 °F 69.1 °F 29.88 in WSW 4.0 mph 11.0 mph 55% 0.00 in
20:48 86.6 °F 69.6 °F 29.88 in WSW 6.0 mph 9.0 mph 57% 0.00 in
20:53 86.2 °F 69.7 °F 29.88 in SW 9.0 mph 9.0 mph 58% 0.00 in
20:59 85.6 °F 69.6 °F 29.88 in SW 6.0 mph 12.0 mph 59% 0.00 in
21:04 85.2 °F 69.8 °F 29.88 in SW 5.0 mph 8.0 mph 60% 0.00 in
21:08 84.8 °F 69.9 °F 29.88 in SW 7.0 mph 8.0 mph 61% 0.00 in
21:14 84.4 °F 70.0 °F 29.88 in SSW 3.0 mph 8.0 mph 62% 0.00 in
21:19 83.9 °F 70.0 °F 29.87 in SSE 4.0 mph 7.0 mph 63% 0.00 in
21:24 83.6 °F 70.1 °F 29.88 in SSW 3.0 mph 6.0 mph 64% 0.00 in
21:29 83.3 °F 70.3 °F 29.88 in SSW 2.0 mph 6.0 mph 65% 0.00 in
21:34 83.1 °F 70.1 °F 29.88 in SW 3.0 mph 6.0 mph 65% 0.00 in
21:39 83.0 °F 70.0 °F 29.88 in South 3.0 mph 5.0 mph 65% 0.00 in
21:44 82.7 °F 70.2 °F 29.89 in SE 3.0 mph 4.0 mph 66% 0.00 in
21:49 82.5 °F 70.0 °F 29.89 in East 4.0 mph 6.0 mph 66% 0.00 in
21:54 82.3 °F 70.3 °F 29.90 in ESE 4.0 mph 5.0 mph 67% 0.00 in
21:59 82.3 °F 70.3 °F 29.90 in ESE 4.0 mph 4.0 mph 67% 0.00 in
22:04 82.5 °F 70.0 °F 29.90 in SE 4.0 mph 5.0 mph 66% 0.00 in
22:09 82.8 °F 69.8 °F 29.90 in SE 4.0 mph 5.0 mph 65% 0.00 in
22:14 82.8 °F 69.8 °F 29.90 in ESE 6.0 mph 6.0 mph 65% 0.00 in
22:19 82.7 °F 69.8 °F 29.91 in SE 3.0 mph 5.0 mph 65% 0.00 in
22:24 82.5 °F 70.0 °F 29.91 in SE 3.0 mph 8.0 mph 66% 0.00 in
22:29 82.4 °F 69.9 °F 29.91 in ESE 4.0 mph 5.0 mph 66% 0.00 in
22:34 82.4 °F 69.9 °F 29.91 in SE 1.0 mph 6.0 mph 66% 0.00 in
22:39 82.4 °F 69.9 °F 29.91 in SE 1.0 mph 4.0 mph 66% 0.00 in
22:44 82.4 °F 69.9 °F 29.92 in East 2.0 mph 2.0 mph 66% 0.00 in
22:49 82.4 °F 69.9 °F 29.92 in Calm     66% 0.00 in
22:54 82.2 °F 70.2 °F 29.92 in SW 1.0 mph 2.0 mph 67% 0.00 in
22:59 81.9 °F 70.3 °F 29.92 in WSW 1.0 mph 1.0 mph 68% 0.00 in
23:04 81.7 °F 70.1 °F 29.92 in WSW 1.0 mph 1.0 mph 68% 0.00 in
23:09 81.7 °F 70.6 °F 29.92 in Calm   2.0 mph 69% 0.00 in
23:14 81.3 °F 70.2 °F 29.92 in Calm   2.0 mph 69% 0.00 in
23:19 81.1 °F 70.4 °F 29.92 in Calm   2.0 mph 70% 0.00 in
23:24 80.9 °F 70.2 °F 29.92 in WSW 2.0 mph 2.0 mph 70% 0.00 in
23:29 81.0 °F 70.7 °F 29.92 in WSW 2.0 mph 2.0 mph 71% 0.00 in
23:34 81.0 °F 70.7 °F 29.92 in SW 2.0 mph 3.0 mph 71% 0.00 in
23:39 80.9 °F 70.6 °F 29.92 in SSW 2.0 mph 4.0 mph 71% 0.00 in
23:44 80.6 °F 70.3 °F 29.92 in South 3.0 mph 3.0 mph 71% 0.00 in
23:49 80.7 °F 70.4 °F 29.93 in SSE 2.0 mph 3.0 mph 71% 0.00 in
23:54 80.7 °F 70.4 °F 29.92 in South 1.0 mph 2.0 mph 71% 0.00 in
23:59 80.6 °F 70.3 °F 29.92 in Calm   1.0 mph 71% 0.00 in
Compliments of Weather Underground